Time;durP1;ratioP1;P1;durP2;ratioP2;P2;SDS_P1;SDS_P2;PMS_P1;PMS_P2;Temp;Humidity;BMP_temperature;BMP_pressure;BME280_temperature;BME280_humidity;BME280_pressure;Samples;Min_cycle;Max_cycle;Signal;HPM_P1;HPM_P2
2022/06/22 00:01:13;;;;;;;44.75;28.33;;;19.80;99.90;;;;;;4932127;29;20040;-82
2022/06/22 00:03:40;;;;;;;47.17;31.00;;;19.80;99.90;;;;;;4933726;29;20027;-81
2022/06/22 00:06:06;;;;;;;49.08;28.88;;;19.80;99.90;;;;;;4933399;29;20617;-80
2022/06/22 00:08:35;;;;;;;45.22;28.70;;;19.70;99.90;;;;;;4933706;29;20107;-81
2022/06/22 00:11:12;;;;;;;53.25;28.90;;;19.70;99.90;;;;;;4933237;29;20031;-80
2022/06/22 00:13:50;;;;;;;50.85;31.23;;;19.70;99.90;;;;;;4935865;29;20019;-80
2022/06/22 00:16:19;;;;;;;47.85;32.22;;;19.70;99.90;;;;;;4933247;29;20028;-80
2022/06/22 00:18:48;;;;;;;50.95;31.10;;;19.70;99.90;;;;;;4933457;29;20059;-80
2022/06/22 00:21:28;;;;;;;40.25;29.52;;;19.60;99.90;;;;;;4931754;29;20090;-80
2022/06/22 00:23:59;;;;;;;46.58;31.40;;;19.60;99.90;;;;;;4933245;29;20027;-81
2022/06/22 00:26:24;;;;;;;41.92;30.50;;;19.60;99.90;;;;;;4933049;29;20027;-81
2022/06/22 00:29:20;;;;;;;38.20;27.42;;;19.60;99.90;;;;;;4933755;29;20546;-81
2022/06/22 00:31:48;;;;;;;36.50;27.17;;;19.60;99.90;;;;;;4932971;29;20016;-82
2022/06/22 00:34:24;;;;;;;40.75;27.85;;;19.60;99.90;;;;;;4931869;29;20028;-82
2022/06/22 00:37:02;;;;;;;40.67;27.33;;;19.70;99.90;;;;;;4931897;29;20028;-82
2022/06/22 00:39:28;;;;;;;33.50;24.48;;;19.60;99.90;;;;;;4933049;29;20122;-83
2022/06/22 00:42:26;;;;;;;37.38;25.58;;;19.60;99.90;;;;;;4931678;29;20600;-83
2022/06/22 00:45:23;;;;;;;30.40;23.25;;;19.70;99.90;;;;;;4932653;29;20051;-84
2022/06/22 00:47:59;;;;;;;31.25;24.88;;;19.70;99.90;;;;;;4924527;29;20483;-84
2022/06/22 00:50:41;;;;;;;36.38;25.70;;;19.60;99.90;;;;;;4932698;29;20038;-84
2022/06/22 00:53:20;;;;;;;34.00;24.92;;;19.50;99.90;;;;;;4932983;29;20020;-84
2022/06/22 00:55:54;;;;;;;31.70;21.83;;;19.60;99.90;;;;;;4932701;29;20055;-84
2022/06/22 00:58:57;;;;;;;34.95;23.73;;;19.70;99.90;;;;;;4932828;29;20028;-84
2022/06/22 01:01:36;;;;;;;34.92;24.00;;;19.60;99.90;;;;;;4922211;29;20044;-84
2022/06/22 01:04:07;;;;;;;34.05;24.30;;;19.60;99.90;;;;;;4932369;29;20396;-84
2022/06/22 01:06:46;;;;;;;35.67;23.25;;;19.60;99.90;;;;;;4931254;29;20062;-84
2022/06/22 01:09:40;;;;;;;31.77;23.45;;;19.60;99.90;;;;;;4931103;29;20024;-84
2022/06/22 01:12:17;;;;;;;31.60;23.85;;;19.50;99.90;;;;;;4932791;29;20052;-84
2022/06/22 01:14:45;;;;;;;34.70;24.73;;;19.50;99.90;;;;;;4931919;29;20461;-83
2022/06/22 01:17:19;;;;;;;35.03;24.75;;;19.60;99.90;;;;;;4932452;29;20031;-84
2022/06/22 01:20:33;;;;;;;33.05;22.63;;;19.60;99.90;;;;;;4920131;29;20127;-83
2022/06/22 01:23:11;;;;;;;30.95;22.75;;;19.70;99.90;;;;;;4932478;29;20501;-83
2022/06/22 01:25:36;;;;;;;34.03;23.17;;;19.70;99.90;;;;;;4937519;29;20567;-83
2022/06/22 01:28:03;;;;;;;32.00;22.90;;;19.80;99.90;;;;;;4935162;29;20059;-82
2022/06/22 01:30:37;;;;;;;33.92;22.05;;;19.80;99.90;;;;;;4935177;29;20114;-83
2022/06/22 01:33:24;;;;;;;31.15;22.70;;;19.80;99.90;;;;;;4935058;29;20404;-82
2022/06/22 01:35:53;;;;;;;29.73;22.38;;;19.80;99.90;;;;;;4936414;29;20039;-83
2022/06/22 01:38:33;;;;;;;25.95;19.52;;;19.80;99.90;;;;;;4934734;29;20401;-82
2022/06/22 01:41:14;;;;;;;27.55;20.27;;;19.80;99.90;;;;;;4936116;29;20504;-82
2022/06/22 01:44:03;;;;;;;33.50;20.48;;;19.70;99.90;;;;;;4923879;29;20024;-83
2022/06/22 01:46:50;;;;;;;32.53;21.73;;;19.80;99.90;;;;;;4935917;29;20531;-84
2022/06/22 01:49:28;;;;;;;33.70;22.23;;;19.80;99.90;;;;;;4923948;29;20052;-83
2022/06/22 01:52:04;;;;;;;34.60;22.40;;;19.80;99.90;;;;;;4934703;29;20032;-82
2022/06/22 01:54:48;;;;;;;32.92;22.40;;;19.80;99.90;;;;;;4935972;29;20126;-83
2022/06/22 01:57:25;;;;;;;27.50;19.98;;;19.80;99.90;;;;;;4935965;29;20628;-83
2022/06/22 01:59:54;;;;;;;25.65;18.92;;;19.90;99.90;;;;;;4935754;29;20028;-82
2022/06/22 02:02:33;;;;;;;22.55;17.50;;;19.80;99.90;;;;;;4935544;29;20039;-81
2022/06/22 02:05:01;;;;;;;25.17;19.00;;;19.70;99.90;;;;;;4935925;29;20048;-81
2022/06/22 02:07:47;;;;;;;23.90;20.10;;;19.80;99.90;;;;;;4935623;29;20388;-80
2022/06/22 02:10:21;;;;;;;34.63;22.67;;;19.70;99.90;;;;;;4935938;29;20034;-80
2022/06/22 02:13:01;;;;;;;30.23;21.17;;;19.70;99.90;;;;;;4935523;29;20011;-79
2022/06/22 02:15:38;;;;;;;27.73;20.83;;;19.60;99.90;;;;;;4935882;29;20036;-79
2022/06/22 02:18:20;;;;;;;29.60;20.45;;;19.50;99.90;;;;;;4934135;29;20413;-79
2022/06/22 02:20:46;;;;;;;29.52;20.83;;;19.50;99.90;;;;;;4933973;29;20135;-79
2022/06/22 02:23:38;;;;;;;29.20;20.60;;;19.50;99.90;;;;;;4935516;29;20155;-79
2022/06/22 02:26:26;;;;;;;29.88;20.48;;;19.40;99.90;;;;;;4933316;29;20508;-79
2022/06/22 02:28:52;;;;;;;29.65;20.10;;;19.40;99.90;;;;;;4936366;29;20032;-81
2022/06/22 02:31:19;;;;;;;29.08;21.55;;;19.40;99.90;;;;;;4935092;29;20035;-81
2022/06/22 02:33:49;;;;;;;31.02;21.00;;;19.50;99.90;;;;;;4935055;29;20059;-82
2022/06/22 02:36:16;;;;;;;37.63;24.05;;;19.40;99.90;;;;;;4935952;29;20051;-82
2022/06/22 02:38:45;;;;;;;40.15;24.25;;;19.40;99.90;;;;;;4934981;29;20560;-82
2022/06/22 02:46:42;;;;;;;;;;;19.20;99.90;;;;;;4935760;29;20415;-81
2022/06/22 02:49:31;;;;;;;32.08;19.83;;;19.20;99.90;;;;;;4934884;29;19918;-80
2022/06/22 02:52:02;;;;;;;38.03;23.23;;;19.20;99.90;;;;;;4934641;29;20032;-80
2022/06/22 02:54:35;;;;;;;36.33;23.02;;;19.30;99.90;;;;;;4934731;29;20024;-80
2022/06/22 02:57:25;;;;;;;34.10;20.40;;;19.20;99.90;;;;;;4934779;29;20028;-79
2022/06/22 02:59:51;;;;;;;37.85;22.25;;;19.20;99.90;;;;;;4933577;29;20039;-79
2022/06/22 03:02:21;;;;;;;31.85;21.35;;;19.20;99.90;;;;;;4934907;29;20159;-79
2022/06/22 03:04:47;;;;;;;28.85;17.63;;;19.30;99.90;;;;;;4934784;29;20020;-79
2022/06/22 03:07:14;;;;;;;27.58;19.13;;;19.10;99.90;;;;;;4934542;29;20401;-79
2022/06/22 03:09:41;;;;;;;24.98;18.35;;;19.10;99.90;;;;;;4934506;29;20016;-79
2022/06/22 03:12:10;;;;;;;23.00;17.25;;;19.20;99.90;;;;;;4934400;29;20028;-79
2022/06/22 03:14:46;;;;;;;23.10;17.15;;;19.20;99.90;;;;;;4936178;29;20488;-79
2022/06/22 03:17:16;;;;;;;21.15;15.77;;;19.20;99.90;;;;;;4934408;29;20027;-80
2022/06/22 03:19:56;;;;;;;27.20;16.10;;;19.10;99.90;;;;;;4934368;29;20016;-80
2022/06/22 03:22:36;;;;;;;23.50;15.32;;;19.20;99.90;;;;;;4934359;29;20044;-80
2022/06/22 03:25:31;;;;;;;33.47;16.83;;;19.10;99.90;;;;;;4934361;29;20428;-80
2022/06/22 03:28:05;;;;;;;20.85;14.02;;;19.20;99.90;;;;;;4930793;29;20876;-81
2022/06/22 03:30:37;;;;;;;19.95;14.82;;;19.20;99.90;;;;;;4923916;29;20246;-81
2022/06/22 03:33:10;;;;;;;17.92;12.98;;;19.20;99.90;;;;;;4928187;29;20059;-81
2022/06/22 03:35:36;;;;;;;21.83;13.07;;;19.10;99.90;;;;;;4933911;29;20028;-79
2022/06/22 03:38:10;;;;;;;24.35;14.23;;;19.00;99.90;;;;;;4922983;29;20524;-79
2022/06/22 03:40:45;;;;;;;;;;;19.00;99.90;;;;;;4928975;29;20122;-80
2022/06/22 03:43:15;;;;;;;28.80;13.77;;;18.90;99.90;;;;;;4930305;29;19913;-78
2022/06/22 03:46:00;;;;;;;22.92;14.85;;;18.80;99.90;;;;;;4931292;29;20023;-78
2022/06/22 03:48:30;;;;;;;23.48;13.88;;;18.80;99.90;;;;;;4927576;29;20118;-78
2022/06/22 03:51:16;;;;;;;24.77;14.55;;;18.80;99.90;;;;;;4933498;29;20028;-78
2022/06/22 03:53:51;;;;;;;26.20;14.32;;;18.80;99.90;;;;;;4933603;29;20041;-78
2022/06/22 03:56:26;;;;;;;26.23;13.38;;;18.80;99.90;;;;;;4933638;29;20540;-79
2022/06/22 03:58:53;;;;;;;24.65;12.70;;;18.80;99.90;;;;;;4933494;29;20095;-79
2022/06/22 04:01:21;;;;;;;21.17;11.95;;;18.80;99.90;;;;;;4933126;29;20425;-79
2022/06/22 04:03:47;;;;;;;31.13;13.77;;;18.70;99.90;;;;;;4933858;29;20028;-79
2022/06/22 04:06:30;;;;;;;22.25;11.52;;;18.80;99.90;;;;;;4933322;29;20024;-79
2022/06/22 04:08:56;;;;;;;19.15;9.65;;;18.70;99.90;;;;;;4925693;29;20118;-79
2022/06/22 04:11:53;;;;;;;20.20;9.68;;;18.70;99.90;;;;;;4932985;29;20107;-79
2022/06/22 04:14:50;;;;;;;18.48;10.82;;;18.70;99.90;;;;;;4931435;29;20043;-79
2022/06/22 04:17:39;;;;;;;22.00;11.30;;;18.80;99.90;;;;;;4927694;29;20020;-78
2022/06/22 04:20:49;;;;;;;25.08;11.90;;;18.90;99.90;;;;;;4932842;29;20131;-78
2022/06/22 04:23:15;;;;;;;16.88;11.40;;;18.80;99.90;;;;;;4932685;29;20039;-79
2022/06/22 04:25:41;;;;;;;22.02;11.40;;;18.80;99.90;;;;;;4933121;29;20026;-78
2022/06/22 04:28:10;;;;;;;19.95;12.98;;;18.70;99.90;;;;;;4934476;29;20051;-77
2022/06/22 04:30:50;;;;;;;25.13;15.07;;;18.60;99.90;;;;;;4932807;29;20030;-77
2022/06/22 04:33:22;;;;;;;30.40;17.42;;;18.70;99.90;;;;;;4932825;29;20083;-77
2022/06/22 04:36:13;;;;;;;21.67;14.40;;;18.60;99.90;;;;;;4932773;29;20047;-78
2022/06/22 04:38:46;;;;;;;37.00;18.52;;;18.60;99.90;;;;;;4932178;29;20032;-78
2022/06/22 04:41:40;;;;;;;26.65;16.90;;;18.60;99.90;;;;;;4932237;29;20134;-78
2022/06/22 04:44:17;;;;;;;26.70;16.30;;;18.70;99.90;;;;;;4931129;29;20019;-79
2022/06/22 04:46:46;;;;;;;19.90;13.75;;;18.70;99.90;;;;;;4932271;29;20392;-79
2022/06/22 04:49:37;;;;;;;23.40;15.35;;;18.60;99.90;;;;;;4932313;29;20055;-80
2022/06/22 04:52:13;;;;;;;22.13;14.27;;;18.80;99.90;;;;;;4927574;29;20047;-80
2022/06/22 04:54:41;;;;;;;21.88;15.13;;;18.90;99.90;;;;;;4931867;29;20425;-79
2022/06/22 04:57:15;;;;;;;24.83;16.08;;;19.00;99.90;;;;;;4936093;29;20028;-80
2022/06/22 04:59:42;;;;;;;24.90;15.30;;;19.00;99.90;;;;;;4943754;29;20054;-80
2022/06/22 05:02:12;;;;;;;18.88;14.43;;;19.00;99.90;;;;;;4937296;29;20034;-79
2022/06/22 05:04:44;;;;;;;24.00;14.90;;;18.90;99.90;;;;;;4937472;29;20019;-80
2022/06/22 05:07:32;;;;;;;19.90;15.88;;;19.00;99.90;;;;;;4935888;29;20488;-80
2022/06/22 05:10:02;;;;;;;23.77;15.65;;;19.00;99.90;;;;;;4934575;29;20032;-80
2022/06/22 05:12:33;;;;;;;22.02;15.07;;;19.10;99.90;;;;;;4933820;29;20042;-79
2022/06/22 05:15:02;;;;;;;22.17;15.93;;;19.20;99.90;;;;;;4940270;29;20019;-79
2022/06/22 05:17:34;;;;;;;26.23;16.48;;;19.20;99.90;;;;;;4936732;29;20107;-80
2022/06/22 05:20:06;;;;;;;21.55;15.73;;;19.10;99.90;;;;;;4938842;29;20024;-79
2022/06/22 05:22:32;;;;;;;22.50;16.42;;;19.20;99.90;;;;;;4941014;29;20298;-80
2022/06/22 05:25:04;;;;;;;22.00;14.48;;;19.20;99.90;;;;;;4943287;29;20035;-79
2022/06/22 05:27:40;;;;;;;21.83;14.43;;;19.20;99.90;;;;;;4943633;29;20272;-80
2022/06/22 05:30:07;;;;;;;21.08;13.98;;;19.10;99.90;;;;;;4943734;29;20028;-79
2022/06/22 05:32:39;;;;;;;24.13;13.93;;;19.10;99.90;;;;;;4943136;29;20033;-80
2022/06/22 05:35:11;;;;;;;23.42;13.30;;;19.00;99.90;;;;;;4942780;29;20023;-79
2022/06/22 05:37:43;;;;;;;15.93;12.23;;;19.00;99.90;;;;;;4943585;29;20300;-79
2022/06/22 05:40:10;;;;;;;18.63;12.07;;;19.00;99.90;;;;;;4943181;29;20050;-80
2022/06/22 05:42:36;;;;;;;22.65;12.43;;;19.00;99.90;;;;;;4943482;29;20026;-79
2022/06/22 05:45:02;;;;;;;16.67;12.05;;;18.90;99.90;;;;;;4942820;29;20023;-79
2022/06/22 05:47:30;;;;;;;21.63;10.80;;;19.00;99.90;;;;;;4943096;29;20071;-79
2022/06/22 05:50:18;;;;;;;17.50;11.63;;;18.90;99.90;;;;;;4933322;29;20544;-79
2022/06/22 05:53:15;;;;;;;19.55;10.93;;;18.90;99.90;;;;;;4930670;29;20027;-80
2022/06/22 05:56:16;;;;;;;12.88;9.35;;;18.90;99.90;;;;;;4931360;29;20063;-79
2022/06/22 05:59:13;;;;;;;13.77;8.75;;;18.90;99.90;;;;;;4928536;29;20032;-79
2022/06/22 06:01:57;;;;;;;16.33;8.65;;;18.80;99.90;;;;;;4925805;29;20131;-80
2022/06/22 06:04:26;;;;;;;13.77;8.77;;;18.80;99.90;;;;;;4929867;29;20047;-80
2022/06/22 06:06:57;;;;;;;14.00;6.60;;;18.90;99.90;;;;;;4932374;29;20024;-79
2022/06/22 06:09:24;;;;;;;12.73;6.88;;;18.80;99.90;;;;;;4934603;29;20081;-80
2022/06/22 06:12:06;;;;;;;14.85;8.48;;;18.50;99.90;;;;;;4934591;29;20027;-81
2022/06/22 06:14:39;;;;;;;18.45;10.90;;;18.40;99.90;;;;;;4934432;29;20107;-81
2022/06/22 06:17:13;;;;;;;18.90;11.23;;;18.40;99.90;;;;;;4934010;29;20031;-81
2022/06/22 06:19:41;;;;;;;24.10;12.13;;;18.40;99.90;;;;;;4934965;29;20024;-81
2022/06/22 06:22:09;;;;;;;18.80;10.07;;;18.30;99.90;;;;;;4935296;29;20865;-82
2022/06/22 06:27:34;;;;;;;30.52;14.10;;;18.40;99.90;;;;;;4935110;29;20496;-81
2022/06/22 06:27:36;;;;;;;28.00;15.05;;;18.40;99.90;;;;;;4931817;29;20071;-82
2022/06/22 06:30:22;;;;;;;22.87;14.23;;;18.40;99.90;;;;;;4935167;29;20055;-82
2022/06/22 06:32:59;;;;;;;27.38;14.07;;;18.40;99.90;;;;;;4935015;29;20020;-82
2022/06/22 06:35:59;;;;;;;25.63;11.55;;;18.40;99.90;;;;;;4929515;29;20020;-81
2022/06/22 06:38:32;;;;;;;21.80;10.80;;;18.40;99.90;;;;;;4935126;29;20022;-82
2022/06/22 06:41:24;;;;;;;23.70;10.77;;;18.30;99.90;;;;;;4935048;29;20501;-83
2022/06/22 06:43:58;;;;;;;19.60;12.38;;;18.40;99.90;;;;;;4931039;29;20028;-82
2022/06/22 06:46:39;;;;;;;19.75;11.20;;;18.50;99.90;;;;;;4934706;29;20059;-83
2022/06/22 06:49:11;;;;;;;22.73;11.27;;;18.50;99.90;;;;;;4934651;29;20135;-83
2022/06/22 06:51:42;;;;;;;20.55;10.73;;;18.50;99.90;;;;;;4934949;29;20058;-81
2022/06/22 06:54:25;;;;;;;17.55;9.57;;;18.50;99.90;;;;;;4934815;29;20031;-81
2022/06/22 06:57:27;;;;;;;20.55;9.63;;;18.60;99.90;;;;;;4934856;29;20677;-81
2022/06/22 06:59:56;;;;;;;17.27;8.95;;;18.60;99.90;;;;;;4914726;29;20102;-81
2022/06/22 07:02:30;;;;;;;13.65;7.55;;;18.60;99.90;;;;;;4934148;29;20054;-82
2022/06/22 07:04:59;;;;;;;14.75;5.85;;;18.60;99.90;;;;;;4928559;29;20481;-81
2022/06/22 07:07:49;;;;;;;13.30;7.00;;;18.50;99.90;;;;;;4934447;29;20409;-82
2022/06/22 07:10:37;;;;;;;11.40;7.60;;;18.50;99.90;;;;;;4931428;29;20408;-80
2022/06/22 07:13:20;;;;;;;11.50;8.02;;;18.50;99.90;;;;;;4932502;29;20063;-81
2022/06/22 07:15:50;;;;;;;12.27;7.88;;;18.60;99.90;;;;;;4934124;29;20547;-81
2022/06/22 07:18:22;;;;;;;16.35;9.13;;;18.60;99.90;;;;;;4933309;29;20020;-81
2022/06/22 07:20:55;;;;;;;17.70;9.07;;;18.70;99.90;;;;;;4934241;29;20032;-81
2022/06/22 07:23:34;;;;;;;15.98;10.55;;;18.80;99.90;;;;;;4934128;29;20020;-81
2022/06/22 07:26:10;;;;;;;22.08;10.48;;;18.90;99.90;;;;;;4934250;29;20067;-81
2022/06/22 07:28:44;;;;;;;16.58;10.18;;;19.10;99.90;;;;;;4934193;29;20106;-81
2022/06/22 07:31:32;;;;;;;13.23;9.60;;;19.10;99.90;;;;;;4934076;29;20031;-81
2022/06/22 07:34:09;;;;;;;11.88;8.90;;;19.20;99.90;;;;;;4929364;29;20043;-81
2022/06/22 07:36:40;;;;;;;16.00;8.77;;;19.20;99.90;;;;;;4933900;29;20020;-81
2022/06/22 07:39:30;;;;;;;11.55;8.77;;;19.30;99.90;;;;;;4932546;29;20028;-81
2022/06/22 07:41:59;;;;;;;13.70;8.57;;;19.30;99.90;;;;;;4933645;29;20044;-81
2022/06/22 07:44:29;;;;;;;15.68;8.60;;;19.30;99.90;;;;;;4927704;29;20024;-81
2022/06/22 07:47:10;;;;;;;14.43;9.10;;;19.30;99.90;;;;;;4933512;29;20023;-80
2022/06/22 07:49:49;;;;;;;13.88;9.73;;;19.50;99.90;;;;;;4933711;29;20059;-80
2022/06/22 07:52:19;;;;;;;13.40;10.15;;;19.60;99.90;;;;;;4933727;29;20024;-80
2022/06/22 07:54:55;;;;;;;13.43;8.23;;;19.60;99.90;;;;;;4932263;29;20032;-80
2022/06/22 07:57:34;;;;;;;18.15;9.02;;;19.60;99.90;;;;;;4933343;29;20047;-80
2022/06/22 08:00:18;;;;;;;14.02;8.00;;;19.70;99.90;;;;;;4933252;29;20020;-80
2022/06/22 08:03:05;;;;;;;14.38;8.70;;;19.70;99.90;;;;;;4932551;29;20034;-80
2022/06/22 08:05:36;;;;;;;12.65;7.57;;;19.70;99.90;;;;;;4933654;29;20524;-80
2022/06/22 08:08:17;;;;;;;11.88;7.38;;;19.80;99.90;;;;;;4933368;29;20023;-80
2022/06/22 08:10:53;;;;;;;9.75;7.03;;;19.90;99.90;;;;;;4933408;29;20090;-80
2022/06/22 08:13:27;;;;;;;11.40;7.20;;;19.90;99.90;;;;;;4928343;29;20020;-81
2022/06/22 08:16:05;;;;;;;11.00;6.65;;;19.80;99.90;;;;;;4933353;29;20031;-80
2022/06/22 08:18:31;;;;;;;12.50;7.57;;;19.80;99.90;;;;;;4933024;29;20027;-80
2022/06/22 08:20:58;;;;;;;11.43;7.65;;;19.80;99.90;;;;;;4932995;29;20130;-83
2022/06/22 08:23:27;;;;;;;10.48;7.13;;;19.80;99.90;;;;;;4933043;29;20268;-80
2022/06/22 08:25:53;;;;;;;10.00;6.97;;;19.90;99.90;;;;;;4933574;29;20023;-80
2022/06/22 08:28:24;;;;;;;12.98;7.07;;;19.90;99.90;;;;;;4932884;29;20102;-80
2022/06/22 08:30:53;;;;;;;11.45;7.55;;;20.00;99.90;;;;;;4933000;29;20059;-80
2022/06/22 08:33:40;;;;;;;10.90;6.68;;;20.10;99.90;;;;;;4932922;29;20027;-80
2022/06/22 08:36:34;;;;;;;13.57;7.05;;;20.10;99.90;;;;;;4933043;29;20047;-79
2022/06/22 08:39:39;;;;;;;10.65;6.95;;;20.00;99.90;;;;;;4929164;29;20031;-79
2022/06/22 08:42:27;;;;;;;10.73;6.28;;;19.90;99.90;;;;;;4887025;29;20041;-79
2022/06/22 08:45:11;;;;;;;10.25;6.68;;;19.90;99.90;;;;;;4931640;29;20055;-79
2022/06/22 08:48:01;;;;;;;9.43;6.13;;;20.00;99.90;;;;;;4931721;29;20397;-80
2022/06/22 08:50:27;;;;;;;11.32;6.35;;;20.00;99.90;;;;;;4931258;29;20500;-79
2022/06/22 08:53:35;;;;;;;10.55;5.88;;;20.20;99.90;;;;;;4932757;29;20038;-79
2022/06/22 08:56:12;;;;;;;7.53;5.13;;;20.40;99.90;;;;;;4921865;29;20126;-80
2022/06/22 08:58:57;;;;;;;12.75;5.20;;;20.50;99.90;;;;;;4932565;29;20084;-79
2022/06/22 09:01:47;;;;;;;12.77;4.75;;;20.60;99.90;;;;;;4930096;29;20058;-80
2022/06/22 09:04:34;;;;;;;9.02;5.35;;;20.70;99.90;;;;;;4932365;29;20055;-80
2022/06/22 09:07:21;;;;;;;8.63;5.03;;;21.00;99.90;;;;;;4932440;29;20039;-80
2022/06/22 09:10:09;;;;;;;6.97;5.13;;;21.20;99.90;;;;;;4932926;29;20074;-80
2022/06/22 09:12:55;;;;;;;7.43;4.72;;;21.40;99.90;;;;;;4932430;29;20019;-79
2022/06/22 09:15:45;;;;;;;7.93;4.70;;;21.60;99.90;;;;;;4932528;29;20056;-79
2022/06/22 09:18:20;;;;;;;8.88;4.50;;;21.70;99.90;;;;;;4926394;29;20032;-79
2022/06/22 09:21:15;;;;;;;;;;;21.90;99.90;;;;;;4932720;29;20044;-80
2022/06/22 09:23:49;;;;;;;6.60;4.10;;;21.90;99.90;;;;;;4923624;29;20277;-80
2022/06/22 09:26:26;;;;;;;8.48;4.20;;;21.80;99.90;;;;;;4932219;29;20472;-79
2022/06/22 09:29:01;;;;;;;8.10;3.92;;;21.60;99.90;;;;;;4926428;29;20039;-79
2022/06/22 09:31:42;;;;;;;6.45;3.78;;;21.80;99.90;;;;;;4929759;29;20026;-79
2022/06/22 09:34:41;;;;;;;5.82;4.03;;;21.80;99.90;;;;;;4930953;29;20405;-79
2022/06/22 09:37:25;;;;;;;7.75;4.18;;;21.80;99.90;;;;;;4926875;29;20027;-79
2022/06/22 09:40:13;;;;;;;7.38;3.38;;;21.90;99.90;;;;;;4932389;29;20066;-79
2022/06/22 09:43:00;;;;;;;5.50;3.50;;;21.90;99.90;;;;;;4935898;29;20035;-79
2022/06/22 09:46:00;;;;;;;6.20;3.75;;;22.00;99.90;;;;;;4931051;29;20081;-79
2022/06/22 09:48:46;;;;;;;6.88;3.80;;;22.20;99.90;;;;;;4935698;29;20051;-79
2022/06/22 09:51:39;;;;;;;6.57;3.75;;;22.20;99.90;;;;;;4931048;29;20051;-79
2022/06/22 09:56:19;;;;;;;5.68;3.17;;;22.40;99.90;;;;;;4935758;29;20136;-79
2022/06/22 09:57:22;;;;;;;4.75;3.13;;;22.40;99.90;;;;;;4930995;29;20063;-79
2022/06/22 10:00:13;;;;;;;9.45;3.35;;;22.50;99.90;;;;;;4933749;29;20090;-79
2022/06/22 10:02:58;;;;;;;8.00;3.28;;;22.70;99.90;;;;;;4935333;29;20552;-80
2022/06/22 10:06:04;;;;;;;4.88;2.38;;;22.80;99.90;;;;;;4935672;29;20448;-79
2022/06/22 10:09:05;;;;;;;5.28;2.60;;;22.90;99.90;;;;;;4930612;29;20036;-80
2022/06/22 10:11:49;;;;;;;4.68;3.00;;;22.90;99.90;;;;;;4935178;29;20020;-80
2022/06/22 10:14:49;;;;;;;7.38;3.55;;;22.90;99.90;;;;;;4935843;29;20027;-79
2022/06/22 10:17:20;;;;;;;6.90;3.20;;;23.10;99.90;;;;;;4935767;29;20032;-79
2022/06/22 10:20:30;;;;;;;5.28;3.50;;;23.00;99.90;;;;;;4935373;29;20019;-79
2022/06/22 10:23:24;;;;;;;6.72;3.28;;;23.00;99.90;;;;;;4931732;29;20051;-79
2022/06/22 10:25:59;;;;;;;5.90;4.05;;;23.00;99.90;;;;;;4931025;29;20079;-79
2022/06/22 10:28:51;;;;;;;5.20;2.92;;;23.20;99.90;;;;;;4935140;29;20518;-79
2022/06/22 10:31:51;;;;;;;5.15;3.55;;;23.60;99.90;;;;;;4933850;29;20142;-79
2022/06/22 10:34:20;;;;;;;6.15;3.10;;;23.60;99.90;;;;;;4932785;29;20038;-79
2022/06/22 10:37:23;;;;;;;7.10;2.80;;;23.70;99.90;;;;;;4934914;29;20027;-78
2022/06/22 10:40:03;;;;;;;5.90;2.70;;;23.90;99.90;;;;;;4934925;29;20030;-79
2022/06/22 10:45:23;;;;;;;;;;;24.00;99.90;;;;;;4935431;29;20098;-79
2022/06/22 10:48:08;;;;;;;5.55;3.10;;;23.80;99.90;;;;;;4933320;29;20352;-79
2022/06/22 10:51:00;;;;;;;5.85;3.15;;;23.50;99.90;;;;;;4931680;29;20035;-79
2022/06/22 10:53:56;;;;;;;4.25;3.10;;;23.50;99.90;;;;;;4917381;29;20483;-79
2022/06/22 10:56:52;;;;;;;5.40;2.80;;;23.60;99.90;;;;;;4931110;29;20084;-79
2022/06/22 10:59:43;;;;;;;5.18;3.38;;;23.50;99.90;;;;;;4928037;29;20031;-79
2022/06/22 11:02:46;;;;;;;12.07;3.95;;;23.70;99.90;;;;;;4931088;29;20050;-79
2022/06/22 11:05:34;;;;;;;6.07;3.20;;;23.60;99.90;;;;;;4932116;29;20099;-79
2022/06/22 11:08:28;;;;;;;8.40;3.15;;;23.60;99.90;;;;;;4930950;29;20032;-79
2022/06/22 11:11:12;;;;;;;5.28;3.15;;;23.80;99.90;;;;;;4934717;29;20101;-79
2022/06/22 11:13:40;;;;;;;9.95;3.20;;;23.50;99.90;;;;;;4924773;29;20024;-79
2022/06/22 11:16:15;;;;;;;6.80;2.95;;;23.20;99.90;;;;;;4933196;29;20059;-79
2022/06/22 11:18:47;;;;;;;6.53;3.28;;;23.20;99.90;;;;;;4934072;29;20022;-79
2022/06/22 11:21:33;;;;;;;4.70;3.15;;;23.30;99.90;;;;;;4934087;29;20102;-79
2022/06/22 11:24:37;;;;;;;6.25;2.90;;;23.30;99.90;;;;;;4928411;29;20099;-79
2022/06/22 11:33:08;;;;;;;5.10;2.43;;;23.40;99.90;;;;;;4934280;29;20034;-79
2022/06/22 11:35:46;;;;;;;7.40;2.20;;;23.60;99.90;;;;;;4928676;29;20028;-79
2022/06/22 11:38:20;;;;;;;5.57;2.25;;;23.80;99.90;;;;;;4934129;29;20552;-79
2022/06/22 11:41:01;;;;;;;3.35;2.00;;;23.90;99.90;;;;;;4933603;29;20032;-79
2022/06/22 11:43:47;;;;;;;6.38;2.30;;;24.00;99.90;;;;;;4933654;29;20039;-80
2022/06/22 11:46:35;;;;;;;3.63;2.10;;;23.90;99.90;;;;;;4927822;29;20026;-79
2022/06/22 11:49:27;;;;;;;5.55;2.80;;;23.80;99.90;;;;;;4933555;29;20048;-79
2022/06/22 11:51:59;;;;;;;3.58;1.85;;;23.70;99.90;;;;;;4933651;29;20039;-79
2022/06/22 11:54:40;;;;;;;4.25;2.28;;;23.90;99.90;;;;;;4927839;29;20370;-79
2022/06/22 11:57:14;;;;;;;3.20;1.90;;;24.10;99.90;;;;;;4930316;29;20175;-79
2022/06/22 12:00:05;;;;;;;4.93;2.42;;;24.40;99.90;;;;;;4933542;29;20527;-79
2022/06/22 12:02:49;;;;;;;4.50;1.63;;;24.40;99.90;;;;;;4928412;29;20051;-80
2022/06/22 12:05:15;;;;;;;;;;;24.50;99.90;;;;;;4928569;29;20032;-80
2022/06/22 12:08:15;;;;;;;2.97;1.58;;;24.60;99.90;;;;;;4933463;29;19910;-79
2022/06/22 12:11:14;;;;;;;5.50;1.80;;;24.50;99.90;;;;;;4933260;29;20051;-79
2022/06/22 12:17:07;;;;;;;4.22;2.08;;;24.30;99.90;;;;;;4928547;29;20106;-79
2022/06/22 12:19:42;;;;;;;4.47;1.73;;;24.40;99.90;;;;;;4933341;29;20047;-79
2022/06/22 12:22:31;;;;;;;4.05;1.63;;;24.50;99.90;;;;;;4933322;29;20035;-79
2022/06/22 12:25:22;;;;;;;4.40;1.90;;;24.80;99.90;;;;;;4933019;29;20024;-79
2022/06/22 12:28:14;;;;;;;6.72;2.08;;;25.10;99.90;;;;;;4933035;29;20528;-79
2022/06/22 12:31:00;;;;;;;3.90;1.95;;;25.20;99.90;;;;;;4927612;29;20027;-80
2022/06/22 12:33:42;;;;;;;6.57;2.20;;;25.20;99.90;;;;;;4929903;29;20028;-79
2022/06/22 12:36:18;;;;;;;8.32;1.90;;;25.40;99.90;;;;;;4932877;29;20500;-79
2022/06/22 12:39:10;;;;;;;5.32;1.98;;;25.50;99.90;;;;;;4932883;29;20031;-79
2022/06/22 12:41:57;;;;;;;8.27;2.13;;;25.40;99.90;;;;;;4932592;29;20032;-79
2022/06/22 12:45:00;;;;;;;4.72;2.00;;;25.20;99.90;;;;;;4932982;29;20023;-79
2022/06/22 12:47:34;;;;;;;5.68;2.70;;;24.90;99.90;;;;;;4929642;29;20039;-79
2022/06/22 12:50:00;;;;;;;;;;;24.30;99.90;;;;;;4933027;29;20027;-79
2022/06/22 12:52:30;;;;;;;6.15;2.70;;;24.00;99.90;;;;;;4932652;29;20382;-79
2022/06/22 12:55:08;;;;;;;4.30;2.53;;;23.90;99.90;;;;;;4932590;29;20051;-79
2022/06/22 12:57:51;;;;;;;9.32;3.50;;;23.80;99.90;;;;;;4932850;29;20497;-79
2022/06/22 13:00:19;;;;;;;7.30;3.05;;;23.70;99.90;;;;;;4932408;29;20024;-80
2022/06/22 13:02:46;;;;;;;6.47;2.65;;;23.60;99.90;;;;;;4932237;29;20090;-79
2022/06/22 13:05:12;;;;;;;5.45;2.40;;;23.60;99.90;;;;;;4927746;29;20043;-80
2022/06/22 13:07:45;;;;;;;4.82;2.72;;;23.70;99.90;;;;;;4932272;29;20493;-79
2022/06/22 13:10:21;;;;;;;4.47;2.55;;;23.90;99.90;;;;;;4932556;29;20024;-79
2022/06/22 13:12:59;;;;;;;6.00;2.80;;;24.70;99.90;;;;;;4932362;29;20020;-79
2022/06/22 13:15:42;;;;;;;4.82;2.60;;;25.30;99.90;;;;;;4931849;29;20020;-79
2022/06/22 13:18:11;;;;;;;8.10;2.83;;;25.70;99.90;;;;;;4931935;29;20079;-80
2022/06/22 13:21:16;;;;;;;4.43;2.45;;;25.60;99.90;;;;;;4932909;29;20032;-79
2022/06/22 13:23:54;;;;;;;4.88;2.50;;;26.00;99.90;;;;;;4930989;29;20412;-80
2022/06/22 13:26:25;;;;;;;6.60;2.75;;;26.60;99.90;;;;;;4932237;29;20048;-79
2022/06/22 13:29:10;;;;;;;6.57;2.35;;;26.80;99.90;;;;;;4932585;29;20024;-79
2022/06/22 13:31:40;;;;;;;4.43;2.45;;;27.60;99.90;;;;;;4932076;29;20034;-82
2022/06/22 13:34:13;;;;;;;6.32;2.58;;;28.40;99.90;;;;;;4932239;29;20039;-81
2022/06/22 13:36:44;;;;;;;5.20;2.28;;;29.60;99.90;;;;;;4932417;29;20079;-82
2022/06/22 13:39:24;;;;;;;4.82;2.13;;;31.10;99.90;;;;;;4932340;29;20274;-82
2022/06/22 13:42:23;;;;;;;6.10;2.05;;;32.70;98.80;;;;;;4932039;29;20027;-82
2022/06/22 13:44:58;;;;;;;5.93;2.40;;;34.60;97.10;;;;;;4932028;29;20027;-81
2022/06/22 13:47:35;;;;;;;4.82;2.13;;;34.20;95.00;;;;;;4931753;29;20075;-81
2022/06/22 13:50:40;;;;;;;3.92;2.00;;;32.20;96.80;;;;;;4931935;29;20400;-82
2022/06/22 13:53:28;;;;;;;5.30;2.10;;;33.10;96.60;;;;;;4931867;29;20043;-82
2022/06/22 13:56:07;;;;;;;4.60;2.10;;;32.80;96.30;;;;;;4932112;29;20024;-82
2022/06/22 13:58:44;;;;;;;6.15;2.35;;;31.80;96.90;;;;;;4932193;29;20158;-82